sensor_id;sensor_type;location;lat;lon;timestamp;pressure;altitude;pressure_sealevel;temperature;humidity
73242;BME280;65659;49.234;-2.094;2023-06-22T00:02:18;100755.85;;;21.52;47.82
73242;BME280;65659;49.234;-2.094;2023-06-22T00:04:43;100759.19;;;21.26;47.73
73242;BME280;65659;49.234;-2.094;2023-06-22T00:07:09;100756.58;;;21.38;47.77
73242;BME280;65659;49.234;-2.094;2023-06-22T00:09:35;100749.87;;;20.80;47.82
73242;BME280;65659;49.234;-2.094;2023-06-22T00:12:00;100751.61;;;21.26;47.79
73242;BME280;65659;49.234;-2.094;2023-06-22T00:14:26;100752.22;;;21.26;47.73
73242;BME280;65659;49.234;-2.094;2023-06-22T00:16:52;100755.83;;;21.23;47.66
73242;BME280;65659;49.234;-2.094;2023-06-22T00:19:18;100757.12;;;21.44;47.63
73242;BME280;65659;49.234;-2.094;2023-06-22T00:21:43;100761.96;;;20.93;47.75
73242;BME280;65659;49.234;-2.094;2023-06-22T00:24:09;100764.82;;;20.88;47.91
73242;BME280;65659;49.234;-2.094;2023-06-22T00:26:35;100764.58;;;21.29;48.13
73242;BME280;65659;49.234;-2.094;2023-06-22T00:29:01;100764.22;;;21.01;48.30
73242;BME280;65659;49.234;-2.094;2023-06-22T00:31:26;100765.19;;;20.92;48.51
73242;BME280;65659;49.234;-2.094;2023-06-22T00:33:52;100762.52;;;20.92;48.53
73242;BME280;65659;49.234;-2.094;2023-06-22T00:36:17;100767.74;;;20.89;48.55
73242;BME280;65659;49.234;-2.094;2023-06-22T00:38:43;100769.07;;;20.81;48.67
73242;BME280;65659;49.234;-2.094;2023-06-22T00:41:09;100770.46;;;20.78;48.76
73242;BME280;65659;49.234;-2.094;2023-06-22T00:43:35;100767.05;;;20.73;48.98
73242;BME280;65659;49.234;-2.094;2023-06-22T00:46:01;100769.52;;;20.46;49.15
73242;BME280;65659;49.234;-2.094;2023-06-22T00:48:26;100767.36;;;20.71;49.21
73242;BME280;65659;49.234;-2.094;2023-06-22T00:50:52;100766.51;;;20.94;49.29
73242;BME280;65659;49.234;-2.094;2023-06-22T00:53:18;100769.30;;;20.69;49.40
73242;BME280;65659;49.234;-2.094;2023-06-22T00:55:44;100771.89;;;20.68;49.54
73242;BME280;65659;49.234;-2.094;2023-06-22T00:58:09;100772.05;;;20.63;49.65
73242;BME280;65659;49.234;-2.094;2023-06-22T01:00:35;100772.80;;;20.60;49.74
73242;BME280;65659;49.234;-2.094;2023-06-22T01:03:02;100768.49;;;20.58;49.92
73242;BME280;65659;49.234;-2.094;2023-06-22T01:05:26;100765.27;;;20.60;49.99
73242;BME280;65659;49.234;-2.094;2023-06-22T01:08:03;100769.10;;;20.56;50.10
73242;BME280;65659;49.234;-2.094;2023-06-22T01:10:23;100770.82;;;20.59;50.09
73242;BME280;65659;49.234;-2.094;2023-06-22T01:12:48;100769.50;;;20.56;50.28
73242;BME280;65659;49.234;-2.094;2023-06-22T01:15:13;100770.52;;;20.58;50.30
73242;BME280;65659;49.234;-2.094;2023-06-22T01:17:35;100773.87;;;20.49;50.46
73242;BME280;65659;49.234;-2.094;2023-06-22T01:20:02;100773.87;;;20.41;50.59
73242;BME280;65659;49.234;-2.094;2023-06-22T01:22:30;100771.80;;;20.68;50.63
73242;BME280;65659;49.234;-2.094;2023-06-22T01:25:04;100767.95;;;20.68;50.64
73242;BME280;65659;49.234;-2.094;2023-06-22T01:27:28;100762.42;;;20.41;50.80
73242;BME280;65659;49.234;-2.094;2023-06-22T01:29:44;100760.25;;;20.39;50.81
73242;BME280;65659;49.234;-2.094;2023-06-22T01:32:10;100760.46;;;20.34;50.95
73242;BME280;65659;49.234;-2.094;2023-06-22T01:34:36;100759.65;;;20.30;51.03
73242;BME280;65659;49.234;-2.094;2023-06-22T01:37:01;100760.86;;;20.79;51.07
73242;BME280;65659;49.234;-2.094;2023-06-22T01:39:26;100763.34;;;20.59;51.02
73242;BME280;65659;49.234;-2.094;2023-06-22T01:41:54;100765.35;;;20.38;51.03
73242;BME280;65659;49.234;-2.094;2023-06-22T01:44:17;100763.40;;;20.57;51.16
73242;BME280;65659;49.234;-2.094;2023-06-22T01:46:44;100761.85;;;20.34;51.23
73242;BME280;65659;49.234;-2.094;2023-06-22T01:49:09;100765.10;;;20.33;51.33
73242;BME280;65659;49.234;-2.094;2023-06-22T01:51:35;100770.51;;;20.53;51.39
73242;BME280;65659;49.234;-2.094;2023-06-22T01:54:01;100774.64;;;20.28;51.39
73242;BME280;65659;49.234;-2.094;2023-06-22T01:56:26;100778.43;;;20.29;51.34
73242;BME280;65659;49.234;-2.094;2023-06-22T01:58:57;100779.45;;;20.53;51.35
73242;BME280;65659;49.234;-2.094;2023-06-22T02:01:22;100772.97;;;20.53;51.34
73242;BME280;65659;49.234;-2.094;2023-06-22T02:03:46;100772.49;;;20.78;51.29
73242;BME280;65659;49.234;-2.094;2023-06-22T02:06:11;100768.99;;;20.26;51.38
73242;BME280;65659;49.234;-2.094;2023-06-22T02:08:40;100769.07;;;20.45;51.42
73242;BME280;65659;49.234;-2.094;2023-06-22T02:11:00;100766.95;;;20.45;51.43
73242;BME280;65659;49.234;-2.094;2023-06-22T02:13:25;100759.97;;;20.68;51.41
73242;BME280;65659;49.234;-2.094;2023-06-22T02:15:50;100755.47;;;20.16;51.40
73242;BME280;65659;49.234;-2.094;2023-06-22T02:18:16;100754.84;;;20.12;51.38
73242;BME280;65659;49.234;-2.094;2023-06-22T02:20:41;100750.70;;;20.29;51.41
73242;BME280;65659;49.234;-2.094;2023-06-22T02:23:08;100746.21;;;20.26;51.47
73242;BME280;65659;49.234;-2.094;2023-06-22T02:25:33;100749.29;;;20.47;51.52
73242;BME280;65659;49.234;-2.094;2023-06-22T02:27:59;100752.01;;;19.96;51.61
73242;BME280;65659;49.234;-2.094;2023-06-22T02:30:24;100748.76;;;19.88;51.72
73242;BME280;65659;49.234;-2.094;2023-06-22T02:32:50;100747.90;;;20.06;51.87
73242;BME280;65659;49.234;-2.094;2023-06-22T02:35:16;100748.84;;;19.73;52.12
73242;BME280;65659;49.234;-2.094;2023-06-22T02:37:41;100745.58;;;20.14;52.30
73242;BME280;65659;49.234;-2.094;2023-06-22T02:40:08;100740.77;;;19.84;52.50
73242;BME280;65659;49.234;-2.094;2023-06-22T02:42:32;100740.90;;;20.03;52.70
73242;BME280;65659;49.234;-2.094;2023-06-22T02:44:58;100742.36;;;19.77;52.93
73242;BME280;65659;49.234;-2.094;2023-06-22T02:47:23;100738.85;;;20.04;52.84
73242;BME280;65659;49.234;-2.094;2023-06-22T02:49:49;100739.29;;;20.04;52.97
73242;BME280;65659;49.234;-2.094;2023-06-22T02:52:15;100736.93;;;19.77;53.18
73242;BME280;65659;49.234;-2.094;2023-06-22T02:54:40;100733.30;;;19.82;53.18
73242;BME280;65659;49.234;-2.094;2023-06-22T02:57:06;100729.10;;;19.76;53.32
73242;BME280;65659;49.234;-2.094;2023-06-22T02:59:31;100722.65;;;19.98;53.40
73242;BME280;65659;49.234;-2.094;2023-06-22T03:01:57;100717.86;;;19.74;53.53
73242;BME280;65659;49.234;-2.094;2023-06-22T03:04:23;100715.85;;;19.97;53.55
73242;BME280;65659;49.234;-2.094;2023-06-22T03:06:48;100716.40;;;19.94;53.68
73242;BME280;65659;49.234;-2.094;2023-06-22T03:09:14;100717.15;;;19.71;53.68
73242;BME280;65659;49.234;-2.094;2023-06-22T03:11:39;100717.35;;;20.20;53.77
73242;BME280;65659;49.234;-2.094;2023-06-22T03:14:05;100716.27;;;19.97;53.77
73242;BME280;65659;49.234;-2.094;2023-06-22T03:16:30;100715.60;;;19.97;53.83
73242;BME280;65659;49.234;-2.094;2023-06-22T03:18:55;100716.18;;;19.73;53.88
73242;BME280;65659;49.234;-2.094;2023-06-22T03:21:22;100717.90;;;19.73;53.94
73242;BME280;65659;49.234;-2.094;2023-06-22T03:23:47;100722.05;;;19.90;54.06
73242;BME280;65659;49.234;-2.094;2023-06-22T03:26:12;100724.27;;;20.17;53.95
73242;BME280;65659;49.234;-2.094;2023-06-22T03:28:38;100723.37;;;19.88;54.04
73242;BME280;65659;49.234;-2.094;2023-06-22T03:31:04;100724.95;;;19.61;54.06
73242;BME280;65659;49.234;-2.094;2023-06-22T03:33:28;100724.28;;;19.83;54.03
73242;BME280;65659;49.234;-2.094;2023-06-22T03:35:54;100725.04;;;19.80;54.09
73242;BME280;65659;49.234;-2.094;2023-06-22T03:38:19;100728.71;;;19.78;54.08
73242;BME280;65659;49.234;-2.094;2023-06-22T03:40:44;100730.34;;;19.77;54.11
73242;BME280;65659;49.234;-2.094;2023-06-22T03:43:10;100729.91;;;19.48;54.15
73242;BME280;65659;49.234;-2.094;2023-06-22T03:45:35;100732.30;;;19.71;54.19
73242;BME280;65659;49.234;-2.094;2023-06-22T03:48:01;100732.57;;;19.67;54.17
73242;BME280;65659;49.234;-2.094;2023-06-22T03:50:27;100732.94;;;20.11;54.29
73242;BME280;65659;49.234;-2.094;2023-06-22T03:52:53;100736.30;;;19.86;54.31
73242;BME280;65659;49.234;-2.094;2023-06-22T03:55:19;100736.61;;;19.66;54.23
73242;BME280;65659;49.234;-2.094;2023-06-22T03:57:43;100741.95;;;19.70;54.17
73242;BME280;65659;49.234;-2.094;2023-06-22T04:00:10;100747.73;;;19.63;54.27
73242;BME280;65659;49.234;-2.094;2023-06-22T04:02:35;100752.78;;;19.59;54.38
73242;BME280;65659;49.234;-2.094;2023-06-22T04:05:00;100750.41;;;19.53;54.43
73242;BME280;65659;49.234;-2.094;2023-06-22T04:07:26;100748.76;;;19.51;54.49
73242;BME280;65659;49.234;-2.094;2023-06-22T04:09:50;100745.02;;;19.55;54.41
73242;BME280;65659;49.234;-2.094;2023-06-22T04:12:16;100742.56;;;19.58;54.41
73242;BME280;65659;49.234;-2.094;2023-06-22T04:14:41;100743.47;;;19.56;54.49
73242;BME280;65659;49.234;-2.094;2023-06-22T04:17:07;100747.18;;;19.51;54.68
73242;BME280;65659;49.234;-2.094;2023-06-22T04:19:32;100748.05;;;19.54;54.67
73242;BME280;65659;49.234;-2.094;2023-06-22T04:21:58;100749.72;;;19.55;54.78
73242;BME280;65659;49.234;-2.094;2023-06-22T04:24:23;100747.79;;;19.78;54.77
73242;BME280;65659;49.234;-2.094;2023-06-22T04:26:48;100749.67;;;19.53;54.84
73242;BME280;65659;49.234;-2.094;2023-06-22T04:29:14;100749.52;;;19.26;54.92
73242;BME280;65659;49.234;-2.094;2023-06-22T04:31:39;100755.30;;;19.48;54.96
73242;BME280;65659;49.234;-2.094;2023-06-22T04:34:05;100756.93;;;19.54;54.83
73242;BME280;65659;49.234;-2.094;2023-06-22T04:36:30;100757.75;;;19.58;54.91
73242;BME280;65659;49.234;-2.094;2023-06-22T04:38:56;100758.28;;;19.69;54.78
73242;BME280;65659;49.234;-2.094;2023-06-22T04:41:21;100760.06;;;20.01;54.81
73242;BME280;65659;49.234;-2.094;2023-06-22T04:43:47;100761.27;;;19.90;54.74
73242;BME280;65659;49.234;-2.094;2023-06-22T04:46:13;100762.82;;;20.03;54.66
73242;BME280;65659;49.234;-2.094;2023-06-22T04:48:39;100764.82;;;20.05;54.72
73242;BME280;65659;49.234;-2.094;2023-06-22T04:51:04;100764.01;;;20.09;54.70
73242;BME280;65659;49.234;-2.094;2023-06-22T04:53:30;100763.71;;;20.10;54.69
73242;BME280;65659;49.234;-2.094;2023-06-22T04:55:55;100764.08;;;20.08;54.71
73242;BME280;65659;49.234;-2.094;2023-06-22T04:58:21;100765.87;;;20.14;54.60
73242;BME280;65659;49.234;-2.094;2023-06-22T05:00:47;100766.68;;;20.14;54.55
73242;BME280;65659;49.234;-2.094;2023-06-22T05:03:12;100772.00;;;19.90;54.54
73242;BME280;65659;49.234;-2.094;2023-06-22T05:05:38;100775.47;;;20.16;54.48
73242;BME280;65659;49.234;-2.094;2023-06-22T05:08:04;100780.95;;;19.97;54.41
73242;BME280;65659;49.234;-2.094;2023-06-22T05:10:29;100783.48;;;20.03;54.31
73242;BME280;65659;49.234;-2.094;2023-06-22T05:12:54;100783.68;;;20.40;54.14
73242;BME280;65659;49.234;-2.094;2023-06-22T05:15:20;100778.99;;;20.38;54.14
73242;BME280;65659;49.234;-2.094;2023-06-22T05:17:45;100779.58;;;20.20;54.06
73242;BME280;65659;49.234;-2.094;2023-06-22T05:20:11;100781.69;;;19.93;54.16
73242;BME280;65659;49.234;-2.094;2023-06-22T05:22:36;100779.85;;;20.22;54.06
73242;BME280;65659;49.234;-2.094;2023-06-22T05:25:02;100777.97;;;20.25;54.01
73242;BME280;65659;49.234;-2.094;2023-06-22T05:27:27;100775.87;;;20.17;53.80
73242;BME280;65659;49.234;-2.094;2023-06-22T05:29:52;100778.84;;;20.45;53.80
73242;BME280;65659;49.234;-2.094;2023-06-22T05:32:17;100785.29;;;20.33;53.72
73242;BME280;65659;49.234;-2.094;2023-06-22T05:34:43;100788.35;;;20.50;53.53
73242;BME280;65659;49.234;-2.094;2023-06-22T05:37:09;100788.83;;;20.60;53.40
73242;BME280;65659;49.234;-2.094;2023-06-22T05:39:35;100790.79;;;20.60;53.43
73242;BME280;65659;49.234;-2.094;2023-06-22T05:42:00;100788.87;;;20.65;53.39
73242;BME280;65659;49.234;-2.094;2023-06-22T05:44:25;100789.75;;;20.73;53.24
73242;BME280;65659;49.234;-2.094;2023-06-22T05:46:51;100789.77;;;20.83;53.07
73242;BME280;65659;49.234;-2.094;2023-06-22T05:49:16;100788.74;;;20.93;52.98
73242;BME280;65659;49.234;-2.094;2023-06-22T05:51:42;100788.07;;;20.99;52.83
73242;BME280;65659;49.234;-2.094;2023-06-22T05:54:08;100786.29;;;21.01;52.76
73242;BME280;65659;49.234;-2.094;2023-06-22T05:56:33;100787.85;;;21.03;52.65
73242;BME280;65659;49.234;-2.094;2023-06-22T05:58:58;100783.54;;;20.89;52.59
73242;BME280;65659;49.234;-2.094;2023-06-22T06:01:24;100785.16;;;21.18;52.43
73242;BME280;65659;49.234;-2.094;2023-06-22T06:03:49;100776.16;;;21.23;52.25
73242;BME280;65659;49.234;-2.094;2023-06-22T06:06:14;100773.34;;;21.28;52.13
73242;BME280;65659;49.234;-2.094;2023-06-22T06:08:40;100772.22;;;21.22;51.86
73242;BME280;65659;49.234;-2.094;2023-06-22T06:11:05;100767.64;;;21.65;51.59
73242;BME280;65659;49.234;-2.094;2023-06-22T06:13:30;100766.59;;;21.21;51.35
73242;BME280;65659;49.234;-2.094;2023-06-22T06:15:56;100772.55;;;21.24;51.29
73242;BME280;65659;49.234;-2.094;2023-06-22T06:18:21;100773.68;;;21.36;51.08
73242;BME280;65659;49.234;-2.094;2023-06-22T06:20:47;100772.65;;;21.48;50.90
73242;BME280;65659;49.234;-2.094;2023-06-22T06:23:12;100772.67;;;21.58;50.80
73242;BME280;65659;49.234;-2.094;2023-06-22T06:25:37;100772.10;;;21.65;50.73
73242;BME280;65659;49.234;-2.094;2023-06-22T06:28:03;100768.85;;;21.69;50.53
73242;BME280;65659;49.234;-2.094;2023-06-22T06:30:28;100770.17;;;21.44;50.54
73242;BME280;65659;49.234;-2.094;2023-06-22T06:32:54;100769.73;;;21.52;50.40
73242;BME280;65659;49.234;-2.094;2023-06-22T06:35:20;100767.65;;;21.37;50.11
73242;BME280;65659;49.234;-2.094;2023-06-22T06:37:47;100769.24;;;21.28;50.25
73242;BME280;65659;49.234;-2.094;2023-06-22T06:40:12;100770.74;;;21.56;50.29
73242;BME280;65659;49.234;-2.094;2023-06-22T06:42:35;100773.46;;;21.91;50.08
73242;BME280;65659;49.234;-2.094;2023-06-22T06:45:01;100768.56;;;21.57;50.03
73242;BME280;65659;49.234;-2.094;2023-06-22T06:47:27;100768.94;;;21.10;49.94
73242;BME280;65659;49.234;-2.094;2023-06-22T06:49:53;100772.04;;;21.23;49.64
73242;BME280;65659;49.234;-2.094;2023-06-22T06:52:18;100778.73;;;21.50;49.51
73242;BME280;65659;49.234;-2.094;2023-06-22T06:54:44;100776.89;;;21.47;49.31
73242;BME280;65659;49.234;-2.094;2023-06-22T06:57:10;100776.44;;;20.70;49.28
73242;BME280;65659;49.234;-2.094;2023-06-22T06:59:35;100777.59;;;21.20;48.66
73242;BME280;65659;49.234;-2.094;2023-06-22T07:02:01;100778.91;;;21.31;48.55
73242;BME280;65659;49.234;-2.094;2023-06-22T07:04:26;100781.58;;;21.49;48.16
73242;BME280;65659;49.234;-2.094;2023-06-22T07:06:52;100786.71;;;21.88;47.99
73242;BME280;65659;49.234;-2.094;2023-06-22T07:09:18;100785.37;;;21.68;47.96
73242;BME280;65659;49.234;-2.094;2023-06-22T07:11:44;100782.89;;;21.77;47.74
73242;BME280;65659;49.234;-2.094;2023-06-22T07:14:09;100783.96;;;21.42;47.41
73242;BME280;65659;49.234;-2.094;2023-06-22T07:16:35;100788.67;;;21.74;46.93
73242;BME280;65659;49.234;-2.094;2023-06-22T07:19:01;100793.60;;;21.78;46.94
73242;BME280;65659;49.234;-2.094;2023-06-22T07:21:26;100792.61;;;21.70;46.86
73242;BME280;65659;49.234;-2.094;2023-06-22T07:23:52;100788.73;;;21.68;46.55
73242;BME280;65659;49.234;-2.094;2023-06-22T07:26:18;100783.93;;;21.95;46.13
73242;BME280;65659;49.234;-2.094;2023-06-22T07:28:43;100784.00;;;21.80;45.73
73242;BME280;65659;49.234;-2.094;2023-06-22T07:31:09;100784.77;;;22.21;45.07
73242;BME280;65659;49.234;-2.094;2023-06-22T07:33:35;100780.11;;;22.45;44.53
73242;BME280;65659;49.234;-2.094;2023-06-22T07:36:00;100785.78;;;22.22;44.26
73242;BME280;65659;49.234;-2.094;2023-06-22T07:38:27;100784.73;;;22.29;43.95
73242;BME280;65659;49.234;-2.094;2023-06-22T07:40:51;100784.48;;;22.43;43.91
73242;BME280;65659;49.234;-2.094;2023-06-22T07:43:16;100782.03;;;22.01;43.62
73242;BME280;65659;49.234;-2.094;2023-06-22T07:45:49;100783.79;;;22.55;43.52
73242;BME280;65659;49.234;-2.094;2023-06-22T07:48:08;100784.81;;;22.66;43.35
73242;BME280;65659;49.234;-2.094;2023-06-22T07:50:34;100785.31;;;22.65;43.03
73242;BME280;65659;49.234;-2.094;2023-06-22T07:52:59;100784.35;;;22.64;43.03
73242;BME280;65659;49.234;-2.094;2023-06-22T07:55:25;100783.68;;;22.78;42.88
73242;BME280;65659;49.234;-2.094;2023-06-22T07:57:50;100785.81;;;22.99;42.70
73242;BME280;65659;49.234;-2.094;2023-06-22T08:00:17;100788.66;;;22.89;42.37
73242;BME280;65659;49.234;-2.094;2023-06-22T08:02:44;100789.72;;;23.45;42.24
73242;BME280;65659;49.234;-2.094;2023-06-22T08:05:07;100794.90;;;24.54;43.00
73242;BME280;65659;49.234;-2.094;2023-06-22T08:07:32;100798.06;;;23.89;44.72
73242;BME280;65659;49.234;-2.094;2023-06-22T08:09:58;100799.48;;;23.21;45.99
73242;BME280;65659;49.234;-2.094;2023-06-22T08:12:23;100802.21;;;22.75;46.66
73242;BME280;65659;49.234;-2.094;2023-06-22T08:14:51;100800.40;;;22.62;47.11
73242;BME280;65659;49.234;-2.094;2023-06-22T08:17:16;100802.39;;;21.49;46.06
73242;BME280;65659;49.234;-2.094;2023-06-22T08:19:42;100798.20;;;22.35;44.36
73242;BME280;65659;49.234;-2.094;2023-06-22T08:22:08;100806.60;;;22.48;43.16
73242;BME280;65659;49.234;-2.094;2023-06-22T08:24:39;100810.17;;;22.77;42.76
73242;BME280;65659;49.234;-2.094;2023-06-22T08:27:00;100812.93;;;23.09;42.31
73242;BME280;65659;49.234;-2.094;2023-06-22T08:29:25;100815.49;;;22.87;42.05
73242;BME280;65659;49.234;-2.094;2023-06-22T08:31:51;100817.36;;;22.83;41.98
73242;BME280;65659;49.234;-2.094;2023-06-22T08:34:15;100814.28;;;23.84;42.32
73242;BME280;65659;49.234;-2.094;2023-06-22T08:36:40;100816.24;;;24.10;43.73
73242;BME280;65659;49.234;-2.094;2023-06-22T08:39:06;100818.71;;;23.79;45.14
73242;BME280;65659;49.234;-2.094;2023-06-22T08:41:32;100824.35;;;23.30;46.14
73242;BME280;65659;49.234;-2.094;2023-06-22T08:43:58;100821.86;;;23.07;46.75
73242;BME280;65659;49.234;-2.094;2023-06-22T08:46:25;100824.59;;;22.99;46.98
73242;BME280;65659;49.234;-2.094;2023-06-22T08:48:51;100822.69;;;21.66;45.58
73242;BME280;65659;49.234;-2.094;2023-06-22T08:51:16;100822.76;;;22.22;43.53
73242;BME280;65659;49.234;-2.094;2023-06-22T08:53:42;100827.88;;;22.85;42.53
73242;BME280;65659;49.234;-2.094;2023-06-22T08:56:06;100828.33;;;24.34;42.57
73242;BME280;65659;49.234;-2.094;2023-06-22T08:58:32;100831.84;;;24.21;43.94
73242;BME280;65659;49.234;-2.094;2023-06-22T09:00:58;100833.86;;;23.91;45.14
73242;BME280;65659;49.234;-2.094;2023-06-22T09:03:23;100843.43;;;23.36;45.62
73242;BME280;65659;49.234;-2.094;2023-06-22T09:05:49;100841.04;;;23.38;45.76
73242;BME280;65659;49.234;-2.094;2023-06-22T09:08:15;100845.55;;;23.47;45.71
73242;BME280;65659;49.234;-2.094;2023-06-22T09:10:40;100848.40;;;23.47;45.63
73242;BME280;65659;49.234;-2.094;2023-06-22T09:13:06;100855.81;;;23.23;45.44
73242;BME280;65659;49.234;-2.094;2023-06-22T09:15:32;100854.89;;;23.45;45.43
73242;BME280;65659;49.234;-2.094;2023-06-22T09:17:58;100858.64;;;23.02;44.59
73242;BME280;65659;49.234;-2.094;2023-06-22T09:20:23;100858.05;;;23.20;44.42
73242;BME280;65659;49.234;-2.094;2023-06-22T09:22:48;100863.25;;;23.53;44.64
73242;BME280;65659;49.234;-2.094;2023-06-22T09:25:14;100862.21;;;23.16;44.50
73242;BME280;65659;49.234;-2.094;2023-06-22T09:27:44;100859.40;;;22.10;42.82
73242;BME280;65659;49.234;-2.094;2023-06-22T09:30:09;100861.59;;;22.72;41.12
73242;BME280;65659;49.234;-2.094;2023-06-22T09:32:33;100864.61;;;23.57;40.13
73242;BME280;65659;49.234;-2.094;2023-06-22T09:34:58;100871.24;;;23.68;39.43
73242;BME280;65659;49.234;-2.094;2023-06-22T09:37:23;100872.29;;;24.91;38.90
73242;BME280;65659;49.234;-2.094;2023-06-22T09:39:49;100871.92;;;25.05;39.70
73242;BME280;65659;49.234;-2.094;2023-06-22T09:42:14;100870.85;;;24.67;40.59
73242;BME280;65659;49.234;-2.094;2023-06-22T09:44:41;100874.30;;;23.23;41.55
73242;BME280;65659;49.234;-2.094;2023-06-22T09:47:09;100874.85;;;22.91;40.04
73242;BME280;65659;49.234;-2.094;2023-06-22T09:49:41;100881.08;;;23.70;38.43
73242;BME280;65659;49.234;-2.094;2023-06-22T09:51:58;100883.78;;;24.40;37.46
73242;BME280;65659;49.234;-2.094;2023-06-22T09:54:26;100881.76;;;24.28;36.29
73242;BME280;65659;49.234;-2.094;2023-06-22T09:56:50;100885.67;;;24.50;36.72
73242;BME280;65659;49.234;-2.094;2023-06-22T09:59:14;100882.24;;;24.61;36.92
73242;BME280;65659;49.234;-2.094;2023-06-22T10:01:40;100882.60;;;24.60;36.73
73242;BME280;65659;49.234;-2.094;2023-06-22T10:04:05;100882.93;;;25.66;36.41
73242;BME280;65659;49.234;-2.094;2023-06-22T10:06:31;100885.08;;;24.94;36.89
73242;BME280;65659;49.234;-2.094;2023-06-22T10:08:58;100889.52;;;25.07;36.85
73242;BME280;65659;49.234;-2.094;2023-06-22T10:11:22;100893.25;;;24.75;36.28
73242;BME280;65659;49.234;-2.094;2023-06-22T10:13:48;100895.26;;;25.40;36.53
73242;BME280;65659;49.234;-2.094;2023-06-22T10:16:12;100896.28;;;26.54;36.92
73242;BME280;65659;49.234;-2.094;2023-06-22T10:18:40;100908.39;;;25.78;38.87
73242;BME280;65659;49.234;-2.094;2023-06-22T10:21:05;100911.84;;;23.68;38.87
73242;BME280;65659;49.234;-2.094;2023-06-22T10:23:31;100909.27;;;24.09;38.22
73242;BME280;65659;49.234;-2.094;2023-06-22T10:25:58;100903.46;;;24.71;38.00
73242;BME280;65659;49.234;-2.094;2023-06-22T10:28:25;100902.08;;;24.84;37.48
73242;BME280;65659;49.234;-2.094;2023-06-22T10:30:48;100905.39;;;25.05;37.44
73242;BME280;65659;49.234;-2.094;2023-06-22T10:33:14;100908.48;;;25.27;37.10
73242;BME280;65659;49.234;-2.094;2023-06-22T10:43:05;100904.73;;;25.77;36.38
73242;BME280;65659;49.234;-2.094;2023-06-22T10:45:30;100909.38;;;25.43;36.19
73242;BME280;65659;49.234;-2.094;2023-06-22T10:47:48;100905.34;;;25.32;36.01
73242;BME280;65659;49.234;-2.094;2023-06-22T10:50:12;100912.20;;;27.11;36.83
73242;BME280;65659;49.234;-2.094;2023-06-22T10:52:37;100915.46;;;26.85;38.65
73242;BME280;65659;49.234;-2.094;2023-06-22T10:55:03;100917.04;;;26.09;39.77
73242;BME280;65659;49.234;-2.094;2023-06-22T10:57:37;100913.51;;;25.69;40.47
73242;BME280;65659;49.234;-2.094;2023-06-22T11:00:07;100914.12;;;24.48;39.54
73242;BME280;65659;49.234;-2.094;2023-06-22T11:02:30;100909.95;;;24.75;37.96
73242;BME280;65659;49.234;-2.094;2023-06-22T11:04:51;100914.31;;;25.27;37.35
73242;BME280;65659;49.234;-2.094;2023-06-22T11:07:17;100911.33;;;25.66;37.07
73242;BME280;65659;49.234;-2.094;2023-06-22T11:09:37;100908.61;;;26.07;36.88
73242;BME280;65659;49.234;-2.094;2023-06-22T11:12:09;100913.49;;;25.54;36.34
73242;BME280;65659;49.234;-2.094;2023-06-22T11:14:38;100910.50;;;25.93;36.41
73242;BME280;65659;49.234;-2.094;2023-06-22T11:16:57;100910.96;;;26.21;36.32
73242;BME280;65659;49.234;-2.094;2023-06-22T11:19:23;100910.24;;;25.97;35.99
73242;BME280;65659;49.234;-2.094;2023-06-22T11:21:46;100909.33;;;26.09;35.79
73242;BME280;65659;49.234;-2.094;2023-06-22T11:24:11;100914.69;;;26.01;35.62
73242;BME280;65659;49.234;-2.094;2023-06-22T11:26:40;100911.66;;;26.28;35.55
73242;BME280;65659;49.234;-2.094;2023-06-22T11:29:09;100909.24;;;26.25;35.53
73242;BME280;65659;49.234;-2.094;2023-06-22T11:31:28;100916.49;;;26.30;35.59
73242;BME280;65659;49.234;-2.094;2023-06-22T11:33:54;100912.48;;;26.21;35.69
73242;BME280;65659;49.234;-2.094;2023-06-22T11:36:24;100912.93;;;26.27;35.78
73242;BME280;65659;49.234;-2.094;2023-06-22T11:38:45;100917.98;;;26.43;35.88
73242;BME280;65659;49.234;-2.094;2023-06-22T11:41:11;100922.34;;;26.22;35.71
73242;BME280;65659;49.234;-2.094;2023-06-22T11:43:36;100917.05;;;26.39;35.46
73242;BME280;65659;49.234;-2.094;2023-06-22T11:46:02;100922.32;;;26.54;35.39
73242;BME280;65659;49.234;-2.094;2023-06-22T11:48:26;100920.20;;;26.99;34.68
73242;BME280;65659;49.234;-2.094;2023-06-22T11:50:52;100924.59;;;26.73;34.55
73242;BME280;65659;49.234;-2.094;2023-06-22T11:53:19;100922.67;;;26.74;34.55
73242;BME280;65659;49.234;-2.094;2023-06-22T11:55:43;100922.23;;;26.89;34.43
73242;BME280;65659;49.234;-2.094;2023-06-22T11:58:07;100919.16;;;26.69;34.59
73242;BME280;65659;49.234;-2.094;2023-06-22T12:00:37;100923.51;;;26.94;34.23
73242;BME280;65659;49.234;-2.094;2023-06-22T12:02:58;100922.69;;;26.88;34.06
73242;BME280;65659;49.234;-2.094;2023-06-22T12:05:30;100921.24;;;26.88;34.27
73242;BME280;65659;49.234;-2.094;2023-06-22T12:07:49;100922.43;;;26.98;34.24
73242;BME280;65659;49.234;-2.094;2023-06-22T12:10:20;100918.97;;;27.01;34.29
73242;BME280;65659;49.234;-2.094;2023-06-22T12:12:42;100919.76;;;27.08;33.86
73242;BME280;65659;49.234;-2.094;2023-06-22T12:15:12;100917.66;;;26.98;33.90
73242;BME280;65659;49.234;-2.094;2023-06-22T12:17:32;100919.34;;;27.07;34.03
73242;BME280;65659;49.234;-2.094;2023-06-22T12:19:59;100926.35;;;27.38;33.72
73242;BME280;65659;49.234;-2.094;2023-06-22T12:22:23;100923.15;;;26.93;33.70
73242;BME280;65659;49.234;-2.094;2023-06-22T12:24:49;100927.17;;;27.18;33.21
73242;BME280;65659;49.234;-2.094;2023-06-22T12:27:16;100926.51;;;27.40;32.70
73242;BME280;65659;49.234;-2.094;2023-06-22T12:29:46;100924.09;;;27.15;32.54
73242;BME280;65659;49.234;-2.094;2023-06-22T12:32:05;100934.68;;;27.30;32.74
73242;BME280;65659;49.234;-2.094;2023-06-22T12:37:30;100932.93;;;27.24;33.04
73242;BME280;65659;49.234;-2.094;2023-06-22T12:39:30;100935.64;;;27.17;32.66
73242;BME280;65659;49.234;-2.094;2023-06-22T12:42:16;100938.11;;;27.15;32.33